createdAt,value
2018-10-11T00:00:15.155Z,5.4
2018-10-11T00:01:05.484Z,5.4
2018-10-11T00:01:55.555Z,5.4
2018-10-11T00:02:45.612Z,5.4
2018-10-11T00:03:35.972Z,5.4
2018-10-11T00:04:26.017Z,5.4
2018-10-11T00:05:16.075Z,5.3
2018-10-11T00:06:05.860Z,5.4
2018-10-11T00:06:56.179Z,5.4
2018-10-11T00:25:17.337Z,5
2018-10-11T00:26:06.607Z,5
2018-10-11T00:26:56.892Z,5
2018-10-11T00:27:47.051Z,4.9
2018-10-11T00:28:51.427Z,5
2018-10-11T00:29:26.540Z,4.9
2018-10-11T00:30:17.186Z,4.9
2018-10-11T00:31:07.231Z,4.9
2018-10-11T00:31:57.017Z,4.9
2018-10-11T00:32:46.804Z,4.9
2018-10-11T00:33:37.414Z,4.9
2018-10-11T00:34:27.489Z,4.9
2018-10-11T00:35:17.255Z,4.9
2018-10-11T00:36:07.341Z,4.9
2018-10-11T00:36:57.363Z,4.9
2018-10-11T00:37:47.729Z,4.9
2018-10-11T00:38:37.784Z,4.9
2018-10-11T00:39:27.859Z,4.9
2018-10-11T00:40:17.921Z,4.8
2018-10-11T00:41:07.993Z,4.8
2018-10-11T00:41:58.041Z,4.8
2018-10-11T00:42:47.808Z,4.8
2018-10-11T00:43:38.140Z,4.8
2018-10-11T00:44:27.931Z,4.8
2018-10-11T00:45:18.001Z,4.8
2018-10-11T00:46:08.344Z,4.8
2018-10-11T00:46:58.384Z,4.8
2018-10-11T00:47:47.912Z,4.8
2018-10-11T00:48:38.533Z,4.8
2018-10-11T00:49:29.018Z,4.7
2018-10-11T00:50:18.372Z,4.7
2018-10-11T00:51:08.458Z,4.7
2018-10-11T00:51:58.785Z,4.7
2018-10-11T00:52:48.287Z,4.6
2018-10-11T00:53:38.610Z,4.7
2018-10-11T00:54:28.956Z,4.6
2018-10-11T00:55:18.733Z,4.6
2018-10-11T00:56:08.809Z,4.6
2018-10-11T00:56:58.863Z,4.6
2018-10-11T00:57:48.932Z,4.6
2018-10-11T00:58:38.997Z,4.6
2018-10-11T00:59:29.052Z,4.6
2018-10-11T01:00:19.388Z,4.6
2018-10-11T01:01:09.159Z,4.6
2018-10-11T01:01:59.236Z,4.6
2018-10-11T01:02:49.597Z,4.6
2018-10-11T01:03:39.357Z,4.5
2018-10-11T01:04:29.692Z,4.5
2018-10-11T01:05:19.766Z,4.5
2018-10-11T01:06:09.839Z,4.4
2018-10-11T01:06:59.863Z,4.4
2018-10-11T01:07:49.366Z,4.4
2018-10-11T01:08:39.489Z,4.4
2018-10-11T01:09:30.348Z,4.4
2018-10-11T01:10:20.132Z,4.4
2018-10-11T01:11:39.491Z,4.3
2018-10-11T01:12:14.617Z,4.3
2018-10-11T01:12:50.292Z,4.3
2018-10-11T01:13:40.388Z,4.3
2018-10-11T01:14:30.148Z,4.3
2018-10-11T01:15:20.491Z,4.3
2018-10-11T01:16:10.316Z,4.3
2018-10-11T01:17:00.058Z,4.3
2018-10-11T01:17:50.691Z,4.3
2018-10-11T01:18:40.466Z,4.3
2018-10-11T01:19:30.514Z,4.3
2018-10-11T01:20:20.303Z,4.2
2018-10-11T01:21:10.626Z,4.2
2018-10-11T01:22:01.258Z,4.2
2018-10-11T01:22:51.065Z,4.2
2018-10-11T01:23:41.150Z,4.3
2018-10-11T01:24:31.184Z,4.3
2018-10-11T01:25:21.239Z,4.3
2018-10-11T01:26:11.291Z,4.3
2018-10-11T01:27:01.346Z,4.2
2018-10-11T01:27:50.863Z,4.3
2018-10-11T01:28:40.910Z,4.2
2018-10-11T01:29:31.785Z,4.2
2018-10-11T01:30:21.336Z,4.2
2018-10-11T01:31:11.673Z,4.2
2018-10-11T01:32:01.203Z,4.2
2018-10-11T01:32:52.066Z,4.1
2018-10-11T01:33:41.843Z,4.1
2018-10-11T01:34:31.362Z,4.1
2018-10-11T01:35:21.985Z,4.1
2018-10-11T01:36:11.778Z,4.1
2018-10-11T01:37:02.168Z,4.1
2018-10-11T01:37:52.151Z,4
2018-10-11T01:38:42.616Z,4
2018-10-11T01:39:32.278Z,4
2018-10-11T01:40:22.341Z,3.9
2018-10-11T01:41:12.131Z,3.9
2018-10-11T01:42:02.198Z,4
2018-10-11T01:42:52.240Z,3.9
2018-10-11T01:43:42.028Z,3.9
2018-10-11T01:44:32.645Z,3.9
2018-10-11T01:45:22.978Z,3.9
2018-10-11T01:46:12.503Z,3.9
2018-10-11T01:47:02.267Z,3.9
2018-10-11T01:47:52.865Z,3.8
2018-10-11T01:48:42.985Z,3.8
2018-10-11T01:49:32.730Z,3.8
2018-10-11T01:50:23.095Z,3.8
2018-10-11T01:51:13.130Z,3.8
2018-10-11T01:52:02.929Z,3.8
2018-10-11T01:52:53.312Z,3.8
2018-10-11T01:53:43.340Z,3.8
2018-10-11T01:54:33.136Z,3.8
2018-10-11T01:55:23.169Z,3.8
2018-10-11T01:56:12.974Z,3.8
2018-10-11T01:57:03.591Z,3.8
2018-10-11T01:57:53.634Z,3.7
2018-10-11T01:58:43.696Z,3.7
2018-10-11T01:59:33.781Z,3.7
2018-10-11T02:00:23.611Z,3.7
2018-10-11T02:01:13.889Z,3.8
2018-10-11T02:02:03.994Z,3.7
2018-10-11T02:02:53.455Z,3.7
2018-10-11T02:03:44.073Z,3.7
2018-10-11T02:04:33.846Z,3.7
2018-10-11T02:05:24.216Z,3.7
2018-10-11T02:06:14.246Z,3.6
2018-10-11T02:07:04.343Z,3.7
2018-10-11T02:07:54.113Z,3.7
2018-10-11T02:08:44.684Z,3.6
2018-10-11T02:09:35.204Z,3.6
2018-10-11T02:10:24.311Z,3.6
2018-10-11T02:11:14.630Z,3.6
2018-10-11T02:12:04.436Z,3.6
2018-10-11T02:12:54.789Z,3.6
2018-10-11T02:13:44.512Z,3.6
2018-10-11T02:14:34.876Z,3.6
2018-10-11T02:15:24.365Z,3.6
2018-10-11T02:16:14.732Z,3.5
2018-10-11T02:17:04.758Z,3.6
2018-10-11T02:17:54.853Z,3.5
2018-10-11T02:18:44.917Z,3.5
2018-10-11T02:19:34.949Z,3.5
2018-10-11T02:20:24.739Z,3.5
2018-10-11T02:21:15.108Z,3.4
2018-10-11T02:22:05.132Z,3.4
2018-10-11T02:22:55.216Z,3.4
2018-10-11T02:23:45.317Z,3.4
2018-10-11T02:24:35.337Z,3.4
2018-10-11T02:25:25.665Z,3.4
2018-10-11T02:26:15.468Z,3.4
2018-10-11T02:27:05.809Z,3.4
2018-10-11T02:27:55.302Z,3.4
2018-10-11T02:28:45.902Z,3.3
2018-10-11T02:29:35.962Z,3.3
2018-10-11T02:30:26.067Z,3.3
2018-10-11T02:31:15.526Z,3.3
2018-10-11T02:32:06.699Z,3.3
2018-10-11T02:32:56.206Z,3.3
2018-10-11T02:33:46.024Z,3.3
2018-10-11T02:34:35.498Z,3.3
2018-10-11T02:35:26.129Z,3.3
2018-10-11T02:36:16.207Z,3.3
2018-10-11T02:37:06.251Z,3.3
2018-10-11T02:37:56.591Z,3.3
2018-10-11T02:38:46.686Z,3.3
2018-10-11T02:39:36.977Z,3.2
2018-10-11T02:40:26.489Z,3.3
2018-10-11T02:41:16.563Z,3.3
2018-10-11T02:42:06.323Z,3.2
2018-10-11T02:42:56.402Z,3.2
2018-10-11T02:43:46.728Z,3.2
2018-10-11T02:44:36.809Z,3.2
2018-10-11T02:45:27.139Z,3.1
2018-10-11T02:46:16.658Z,3.1
2018-10-11T02:47:07.266Z,3.1
2018-10-11T02:47:56.774Z,3.1
2018-10-11T02:48:47.388Z,3.1
2018-10-11T02:49:37.710Z,3.1
2018-10-11T02:50:27.241Z,3.1
2018-10-11T02:51:17.021Z,3.1
2018-10-11T02:52:07.621Z,3.1
2018-10-11T02:52:57.451Z,3.1
2018-10-11T02:53:47.478Z,3.1
2018-10-11T02:54:37.813Z,3.1
2018-10-11T02:55:27.948Z,3.1
2018-10-11T02:56:17.658Z,3.1
2018-10-11T02:57:07.711Z,3.1
2018-10-11T02:57:58.081Z,3.2
2018-10-11T02:58:48.148Z,3.2
2018-10-11T02:59:38.202Z,3.2
2018-10-11T03:00:28.573Z,3.1
2018-10-11T03:01:18.081Z,3.1
2018-10-11T03:02:08.117Z,3.1
2018-10-11T03:02:57.860Z,3.1
2018-10-11T03:03:48.237Z,3.1
2018-10-11T03:04:37.721Z,3.2
2018-10-11T03:05:28.637Z,3.2
2018-10-11T03:06:18.690Z,3.2
2018-10-11T03:07:08.467Z,3.2
2018-10-11T03:07:58.528Z,3.2
2018-10-11T03:08:48.585Z,3.2
2018-10-11T03:09:38.370Z,3.2
2018-10-11T03:10:28.735Z,3.2
2018-10-11T03:11:19.037Z,3.2
2018-10-11T03:12:09.129Z,3.2
2018-10-11T03:12:58.910Z,3.1
2018-10-11T03:13:48.666Z,3.2
2018-10-11T03:14:39.308Z,3.2
2018-10-11T03:15:29.322Z,3.2
2018-10-11T03:16:19.154Z,3.2
2018-10-11T03:17:09.201Z,3.2
2018-10-11T03:17:58.984Z,3.2
2018-10-11T03:18:49.319Z,3.2
2018-10-11T03:19:39.394Z,3.1
2018-10-11T03:20:29.734Z,3.1
2018-10-11T03:21:19.512Z,3.1
2018-10-11T03:22:10.174Z,3.1
2018-10-11T03:22:59.899Z,3.1
2018-10-11T03:23:49.979Z,3.1
2018-10-11T03:24:40.057Z,3.1
2018-10-11T03:25:31.233Z,3.1
2018-10-11T03:26:19.892Z,3.1
2018-10-11T03:27:09.940Z,3.1
2018-10-11T03:28:00.015Z,3.1
2018-10-11T03:28:50.061Z,3.1
2018-10-11T03:29:40.144Z,3.1
2018-10-11T03:30:30.784Z,3
2018-10-11T03:31:20.541Z,3
2018-10-11T03:32:10.609Z,3
2018-10-11T03:33:00.382Z,3.1
2018-10-11T03:33:50.794Z,3.1
2018-10-11T03:34:40.792Z,3.1
2018-10-11T03:35:30.904Z,3.1
2018-10-11T03:36:20.926Z,3.1
2018-10-11T03:37:10.698Z,3.1
2018-10-11T03:38:01.016Z,3.1
2018-10-11T03:38:51.076Z,3
2018-10-11T03:39:41.178Z,3
2018-10-11T03:40:30.956Z,3
2018-10-11T03:41:21.011Z,3
2018-10-11T03:42:11.056Z,3
2018-10-11T03:43:00.840Z,3
2018-10-11T03:43:51.179Z,3.1
2018-10-11T03:44:41.249Z,3.1
2018-10-11T03:45:31.286Z,3.1
2018-10-11T03:46:21.241Z,3
2018-10-11T03:47:11.420Z,3
2018-10-11T03:48:01.524Z,2.9
2018-10-11T03:48:51.829Z,2.9
2018-10-11T03:49:41.606Z,2.9
2018-10-11T03:50:31.969Z,2.9
2018-10-11T03:51:22.003Z,3
2018-10-11T03:52:11.520Z,3
2018-10-11T03:53:01.850Z,3
2018-10-11T03:53:51.923Z,2.9
2018-10-11T03:54:41.988Z,3
2018-10-11T03:55:32.020Z,2.9
2018-10-11T03:56:22.412Z,2.9
2018-10-11T03:57:12.440Z,2.9
2018-10-11T03:58:02.496Z,2.9
2018-10-11T03:58:52.547Z,2.9
2018-10-11T03:59:42.675Z,2.9
2018-10-11T04:00:32.680Z,2.9
2018-10-11T04:01:22.475Z,2.9
2018-10-11T04:02:12.813Z,3
2018-10-11T04:03:02.598Z,3
2018-10-11T04:03:52.654Z,3
2018-10-11T04:04:42.719Z,3
2018-10-11T04:05:33.057Z,3
2018-10-11T04:06:23.099Z,2.9
2018-10-11T04:07:13.201Z,2.9
2018-10-11T04:08:03.247Z,3
2018-10-11T04:08:53.302Z,3
2018-10-11T04:09:43.072Z,3
2018-10-11T04:10:33.424Z,3
2018-10-11T04:11:23.469Z,3
2018-10-11T04:12:13.547Z,2.9
2018-10-11T04:13:03.879Z,3
2018-10-11T04:13:53.649Z,3
2018-10-11T04:14:43.496Z,3
2018-10-11T04:15:34.176Z,3
2018-10-11T04:16:23.866Z,3.1
2018-10-11T04:17:13.911Z,3.1
2018-10-11T04:18:03.971Z,3.1
2018-10-11T04:18:53.474Z,3.1
2018-10-11T04:19:44.108Z,3.1
2018-10-11T04:20:34.168Z,3.1
2018-10-11T04:21:24.235Z,3.1
2018-10-11T04:22:14.013Z,3.1
2018-10-11T04:23:03.776Z,3.1
2018-10-11T04:23:54.102Z,3.1
2018-10-11T04:24:43.909Z,3.1
2018-10-11T04:25:34.233Z,3.1
2018-10-11T04:26:24.620Z,3.1
2018-10-11T04:27:14.660Z,3.1
2018-10-11T04:28:04.420Z,3.1
2018-10-11T04:28:54.785Z,3.1
2018-10-11T04:29:44.285Z,3.1
2018-10-11T04:30:34.900Z,3.1
2018-10-11T04:31:24.961Z,3.1
2018-10-11T04:32:15.010Z,3.1
2018-10-11T04:33:04.885Z,3.1
2018-10-11T04:33:55.425Z,3.1
2018-10-11T04:34:44.910Z,3.1
2018-10-11T04:35:35.267Z,3.2
2018-10-11T04:36:25.062Z,3.2
2018-10-11T04:54:16.743Z,3.2
2018-10-11T04:55:06.561Z,3.3
2018-10-11T04:55:56.597Z,3.3
2018-10-11T04:56:46.675Z,3.3
2018-10-11T04:57:36.444Z,3.3
2018-10-11T04:58:26.793Z,3.3
2018-10-11T04:59:17.343Z,3.3
2018-10-11T05:00:06.893Z,3.3
2018-10-11T05:00:56.956Z,3.3
2018-10-11T05:01:46.743Z,3.4
2018-10-11T05:02:37.095Z,3.4
2018-10-11T05:03:27.158Z,3.4
2018-10-11T05:04:17.755Z,3.5
2018-10-11T05:05:07.255Z,3.5
2018-10-11T05:05:57.055Z,3.6
2018-10-11T05:06:47.388Z,3.6
2018-10-11T05:07:37.441Z,3.7
2018-10-11T05:08:27.498Z,3.8
2018-10-11T05:09:17.002Z,3.8
2018-10-11T05:10:07.634Z,3.9
2018-10-11T05:10:57.712Z,3.9
2018-10-11T05:11:47.459Z,4.1
2018-10-11T05:12:37.817Z,4.2
2018-10-11T05:13:27.879Z,4.3
2018-10-11T05:14:17.634Z,4.4
2018-10-11T05:15:08.001Z,4.4
2018-10-11T05:15:58.056Z,4.6
2018-10-11T05:16:47.836Z,4.7
2018-10-11T05:17:37.899Z,4.8
2018-10-11T05:18:27.976Z,4.9
2018-10-11T05:19:18.322Z,5.1
2018-10-11T05:20:08.084Z,5.2
2018-10-11T05:20:58.149Z,5.3
2018-10-11T05:21:48.524Z,5.5
2018-10-11T05:22:38.567Z,5.7
2018-10-11T05:23:28.626Z,5.9
2018-10-11T05:24:18.656Z,6.1
2018-10-11T05:25:08.735Z,6.3
2018-10-11T05:25:58.978Z,6.6
2018-10-11T05:26:48.925Z,6.8
2018-10-11T05:27:38.938Z,7.1
2018-10-11T05:28:28.999Z,7.4
2018-10-11T05:29:19.028Z,7.7
2018-10-11T05:30:09.349Z,8
2018-10-11T05:30:59.148Z,8.3
2018-10-11T05:31:49.231Z,8.6
2018-10-11T05:32:39.282Z,8.9
2018-10-11T05:33:29.331Z,9.3
2018-10-11T05:34:19.113Z,9.6
2018-10-11T05:35:09.711Z,9.9
2018-10-11T05:35:59.523Z,10.2
2018-10-11T05:36:49.623Z,10.5
2018-10-11T05:37:39.648Z,10.8
2018-10-11T05:38:29.703Z,11.1
2018-10-11T05:39:19.188Z,11.5
2018-10-11T05:40:09.538Z,11.9
2018-10-11T05:40:59.606Z,12.2
2018-10-11T05:41:49.370Z,12.6
2018-10-11T05:42:39.721Z,12.9
2018-10-11T05:43:30.067Z,13.3
2018-10-11T05:44:20.458Z,13.8
2018-10-11T05:45:10.208Z,14.1
2018-10-11T05:46:00.268Z,14.6
2018-10-11T05:46:50.045Z,15
2018-10-11T05:47:40.378Z,15.4
2018-10-11T05:48:30.442Z,15.9
2018-10-11T05:49:20.495Z,16.4
2018-10-11T05:50:10.499Z,16.9
2018-10-11T05:51:00.627Z,17.4
2018-10-11T05:51:50.699Z,17.8
2018-10-11T05:52:40.455Z,18.3
2018-10-11T05:53:30.810Z,18.8
2018-10-11T05:54:20.865Z,19.2
2018-10-11T05:55:10.935Z,19.7
2018-10-11T05:56:00.988Z,20.1
2018-10-11T05:56:51.889Z,20.6
2018-10-11T05:57:41.120Z,20.9
2018-10-11T05:58:31.164Z,21.4
2018-10-11T05:59:20.479Z,21.8
2018-10-11T06:00:10.536Z,22.2
2018-10-11T06:01:01.364Z,22.6
2018-10-11T06:01:51.439Z,23.1
2018-10-11T06:02:41.495Z,23.4
2018-10-11T06:03:31.529Z,23.9
2018-10-11T06:04:22.419Z,24.4
2018-10-11T06:05:11.674Z,24.8
2018-10-11T06:06:01.447Z,25.2
2018-10-11T06:06:51.487Z,25.6
2018-10-11T06:07:41.842Z,26
2018-10-11T06:08:31.427Z,26.4
2018-10-11T06:09:21.674Z,26.8
2018-10-11T06:10:11.750Z,27.3
2018-10-11T06:11:01.816Z,27.7
2018-10-11T06:11:52.339Z,28.1
2018-10-11T06:12:42.252Z,28.6
2018-10-11T06:13:31.992Z,29.1
2018-10-11T06:14:22.392Z,29.6
2018-10-11T06:15:12.121Z,30.1
2018-10-11T06:16:02.495Z,30.6
2018-10-11T06:16:52.252Z,31.2
2018-10-11T06:17:42.826Z,31.8
2018-10-11T06:18:32.683Z,32.4
2018-10-11T06:19:22.710Z,32.9
2018-10-11T06:20:12.810Z,33.5
2018-10-11T06:21:02.337Z,34.1
2018-10-11T06:21:52.895Z,34.6
2018-10-11T06:22:43.210Z,35.1
2018-10-11T06:23:33.005Z,35.8
2018-10-11T06:24:23.069Z,36.3
2018-10-11T06:25:12.862Z,36.9
2018-10-11T06:26:03.206Z,37.5
2018-10-11T06:26:53.268Z,38.1
2018-10-11T06:27:43.314Z,38.6
2018-10-11T06:28:33.379Z,39.1
2018-10-11T06:29:23.454Z,39.7
2018-10-11T06:30:13.089Z,40.2
2018-10-11T06:31:03.553Z,40.8
2018-10-11T06:31:53.329Z,41.3
2018-10-11T06:32:43.680Z,41.9
2018-10-11T06:33:33.746Z,42.4
2018-10-11T06:34:23.804Z,42.9
2018-10-11T06:35:13.586Z,43.4
2018-10-11T06:36:04.600Z,43.9
2018-10-11T06:36:53.986Z,44.4
2018-10-11T06:37:44.056Z,44.9
2018-10-11T06:38:34.126Z,45.4
2018-10-11T06:39:24.194Z,45.9
2018-10-11T06:40:13.956Z,46.4
2018-10-11T06:41:04.028Z,46.9
2018-10-11T06:41:54.674Z,47.4
2018-10-11T06:42:45.430Z,47.8
2018-10-11T06:43:34.191Z,48.3
2018-10-11T06:44:24.539Z,48.8
2018-10-11T06:45:14.628Z,49.4
2018-10-11T06:46:04.665Z,49.9
2018-10-11T06:46:54.730Z,50.3
2018-10-11T06:47:44.780Z,50.8
2018-10-11T06:48:34.856Z,51.1
2018-10-11T06:49:24.618Z,51.6
2018-10-11T06:50:14.937Z,52.1
2018-10-11T06:51:05.032Z,52.5
2018-10-11T06:51:55.103Z,52.9
2018-10-11T06:52:45.143Z,53.4
2018-10-11T06:53:34.638Z,53.9
2018-10-11T06:54:24.993Z,54.4
2018-10-11T06:55:15.059Z,54.9
2018-10-11T06:56:06.034Z,55.3
2018-10-11T06:56:55.455Z,55.8
2018-10-11T06:57:45.524Z,56.4
2018-10-11T06:58:35.606Z,56.9
2018-10-11T06:59:25.636Z,57.4
2018-10-11T07:01:05.503Z,58.1
2018-10-11T07:01:56.658Z,58.4
2018-10-11T07:02:45.313Z,58.9
2018-10-11T07:03:36.013Z,59.3
2018-10-11T07:04:26.258Z,59.6
2018-10-11T07:05:16.081Z,60.1
2018-10-11T07:06:06.157Z,60.6
2018-10-11T07:06:55.897Z,60.9
2018-10-11T07:07:45.965Z,61.3
2018-10-11T07:08:36.016Z,61.6
2018-10-11T07:09:26.382Z,62.1
2018-10-11T07:10:16.432Z,62.5
2018-10-11T07:11:06.212Z,62.9
2018-10-11T07:11:56.277Z,63.3
2018-10-11T07:12:46.616Z,63.8
2018-10-11T07:13:36.387Z,64.1
2018-10-11T07:14:26.757Z,64.5
2018-10-11T07:15:16.522Z,64.9
2018-10-11T07:16:06.852Z,65.7
2018-10-11T07:16:56.921Z,62.6
2018-10-11T07:17:46.704Z,60.3
2018-10-11T07:18:36.754Z,55.9
2018-10-11T07:19:27.997Z,49.4
2018-10-11T07:20:16.602Z,45.8
2018-10-11T07:21:06.936Z,44.1
2018-10-11T07:21:57.289Z,43.4
2018-10-11T07:22:47.057Z,43.4
2018-10-11T07:23:37.422Z,44.1
2018-10-11T07:24:27.503Z,45.1
2018-10-11T07:25:17.574Z,46.4
2018-10-11T07:26:07.695Z,47.9
2018-10-11T07:26:57.673Z,49.3
2018-10-11T07:27:47.726Z,50.7
2018-10-11T07:28:37.491Z,51.9
2018-10-11T07:29:27.842Z,53.1
2018-10-11T07:30:17.061Z,54.3
2018-10-11T07:31:07.673Z,55.4
2018-10-11T07:31:57.756Z,56.4
2018-10-11T07:32:47.813Z,57.4
2018-10-11T07:33:37.296Z,58.4
2018-10-11T07:34:28.376Z,59.4
2018-10-11T07:35:18.792Z,60.3
2018-10-11T07:36:08.344Z,61.1
2018-10-11T07:36:58.403Z,61.8
2018-10-11T07:37:48.171Z,62.6
2018-10-11T07:38:37.958Z,63.3
2018-10-11T07:39:28.293Z,64
2018-10-11T07:40:19.101Z,65
2018-10-11T07:41:09.494Z,65.3
2018-10-11T07:41:58.777Z,61.8
2018-10-11T07:42:48.827Z,59.4
2018-10-11T07:43:38.907Z,55.3
2018-10-11T07:44:28.965Z,51.8
2018-10-11T07:45:18.733Z,50.4
2018-10-11T07:46:08.806Z,50.1
2018-10-11T07:46:59.032Z,50.7
2018-10-11T07:47:49.167Z,51.8
2018-10-11T07:48:39.263Z,52.9
2018-10-11T07:49:29.035Z,54.3
2018-10-11T07:50:19.390Z,55.6
2018-10-11T07:51:09.438Z,56.8
2018-10-11T07:51:59.210Z,57.9
2018-10-11T07:52:50.082Z,59.1
2018-10-11T07:53:39.341Z,60.3
2018-10-11T07:54:29.681Z,61.4
2018-10-11T07:55:19.750Z,62.6
2018-10-11T07:56:10.108Z,63.7
2018-10-11T07:56:59.883Z,65.4
2018-10-11T07:57:49.943Z,63.9
2018-10-11T07:58:40.002Z,63.1
2018-10-11T07:59:30.072Z,61.3
2018-10-11T08:00:19.832Z,58
2018-10-11T08:01:10.180Z,55.1
2018-10-11T08:01:59.970Z,54
2018-10-11T08:02:50.046Z,54.5
2018-10-11T08:03:40.187Z,55.6
2018-10-11T08:04:30.430Z,56.9
2018-10-11T08:05:20.754Z,58.3
2018-10-11T08:06:10.577Z,59.6
2018-10-11T08:07:00.891Z,60.9
2018-10-11T08:07:51.021Z,63.2
2018-10-11T08:08:40.480Z,63.4
2018-10-11T08:09:30.820Z,63.2
2018-10-11T08:10:21.011Z,62.1
2018-10-11T08:11:11.523Z,59.4
2018-10-11T08:12:02.999Z,56.6
2018-10-11T08:12:51.069Z,55.6
2018-10-11T08:13:41.830Z,56.4
2018-10-11T08:14:31.198Z,57.9
2018-10-11T08:15:21.207Z,58.9
2018-10-11T08:16:12.403Z,59.3
2018-10-11T08:17:03.537Z,59
2018-10-11T08:17:54.094Z,58.2
2018-10-11T08:19:33.757Z,57.6
2018-10-11T08:20:22.091Z,57.9
2018-10-11T08:21:11.111Z,58.4
2018-10-11T08:22:01.772Z,58.8
2018-10-11T08:22:51.536Z,59
2018-10-11T08:23:41.318Z,58.8
2018-10-11T08:24:32.686Z,58.7
2018-10-11T08:25:24.373Z,58.6
2018-10-11T08:26:15.500Z,58.8
2018-10-11T08:27:02.200Z,58.9
2018-10-11T08:27:51.389Z,59
2018-10-11T08:28:41.923Z,59.1
2018-10-11T08:29:32.083Z,59.3
2018-10-11T08:30:22.343Z,59.4
2018-10-11T08:31:12.398Z,59.4
2018-10-11T08:32:02.054Z,59.6
2018-10-11T08:32:52.743Z,59.8
2018-10-11T08:33:42.307Z,60
2018-10-11T08:34:31.895Z,60.3
2018-10-11T08:35:22.706Z,60.6
2018-10-11T08:36:12.763Z,60.9
2018-10-11T08:37:02.345Z,61.1
2018-10-11T08:37:53.895Z,61.3
2018-10-11T08:38:43.075Z,61.4
2018-10-11T08:39:32.780Z,61.5
2018-10-11T08:40:23.194Z,61.8
2018-10-11T08:41:12.657Z,62.1
2018-10-11T08:42:03.236Z,61.3
2018-10-11T08:42:52.777Z,59.9
2018-10-11T08:43:43.217Z,58.5
2018-10-11T08:44:32.870Z,57.4
2018-10-11T08:45:23.465Z,56.8
2018-10-11T08:46:13.067Z,56.4
2018-10-11T08:47:03.290Z,56.6
2018-10-11T08:47:53.354Z,56.9
2018-10-11T08:48:43.945Z,56.4
2018-10-11T08:49:33.775Z,55.5
2018-10-11T08:50:23.792Z,54.4
2018-10-11T08:51:13.595Z,53.4
2018-10-11T08:52:03.464Z,52.8
2018-10-11T09:08:51.463Z,50.3
2018-10-11T09:09:41.896Z,50.1
2018-10-11T09:10:40.763Z,50
2018-10-11T09:11:20.623Z,49.8
2018-10-11T09:12:11.389Z,49.6
2018-10-11T09:13:01.441Z,49.6
2018-10-11T09:13:51.414Z,49.6
2018-10-11T09:14:41.771Z,49.6
2018-10-11T09:15:31.076Z,49.5
2018-10-11T09:16:21.646Z,49.4
2018-10-11T09:17:12.255Z,49.2
2018-10-11T09:18:02.039Z,49.1
2018-10-11T09:18:51.788Z,49.1
2018-10-11T09:19:41.386Z,49.1
2018-10-11T09:20:31.718Z,49
2018-10-11T09:21:22.118Z,48.9
2018-10-11T09:22:12.114Z,48.9
2018-10-11T09:23:01.676Z,48.9
2018-10-11T09:23:52.259Z,48.8
2018-10-11T09:24:42.782Z,48.7
2018-10-11T09:25:32.092Z,48.8
2018-10-11T09:26:22.425Z,48.9
2018-10-11T09:27:12.703Z,48.8
2018-10-11T09:28:02.266Z,48.8
2018-10-11T09:28:52.603Z,48.6
2018-10-11T09:29:42.838Z,48.6
2018-10-11T09:30:33.254Z,48.7
2018-10-11T09:31:22.803Z,48.8
2018-10-11T09:32:12.588Z,48.8
2018-10-11T09:33:03.442Z,48.6
2018-10-11T09:33:52.730Z,48.5
2018-10-11T09:34:42.981Z,48.9
2018-10-11T09:35:33.035Z,50.1
2018-10-11T09:36:23.182Z,51.8
2018-10-11T09:37:13.250Z,53.5
2018-10-11T09:38:03.797Z,55
2018-10-11T09:38:53.077Z,56.1
2018-10-11T09:39:43.158Z,57.5
2018-10-11T09:40:33.491Z,59.2
2018-10-11T09:41:23.531Z,60.9
2018-10-11T09:42:13.621Z,62.7
2018-10-11T09:43:03.382Z,64.6
2018-10-11T09:43:53.734Z,67.9
2018-10-11T09:44:43.781Z,70
2018-10-11T09:45:33.379Z,67.1
2018-10-11T09:46:23.927Z,63.3
2018-10-11T09:47:13.974Z,57.1
2018-10-11T09:48:03.486Z,51.4
2018-10-11T09:48:54.122Z,49
2018-10-11T09:49:43.786Z,48.6
2018-10-11T09:50:34.696Z,49.7
2018-10-11T09:51:24.011Z,50.8
2018-10-11T09:52:14.538Z,51.8
2018-10-11T09:53:04.896Z,52.9
2018-10-11T09:53:54.466Z,53.6
2018-10-11T09:54:44.824Z,54.1
2018-10-11T09:55:34.591Z,54.6
2018-10-11T09:56:24.728Z,55.1
2018-10-11T09:57:14.450Z,55.6
2018-10-11T09:58:04.308Z,56
2018-10-11T09:58:54.288Z,56.4
2018-10-11T09:59:44.618Z,56.8
2018-10-11T10:00:34.415Z,57.3
2018-10-11T10:02:14.805Z,58.9
2018-10-11T10:03:04.615Z,60.3
2018-10-11T10:03:55.233Z,62.1
2018-10-11T10:04:45.295Z,64.4
2018-10-11T10:05:34.567Z,68.6
2018-10-11T10:06:25.409Z,69.2
2018-10-11T10:07:15.475Z,68.8
2018-10-11T10:08:04.955Z,66.3
2018-10-11T10:08:55.592Z,62
2018-10-11T10:09:45.905Z,58.8
2018-10-11T10:10:35.725Z,57.4
2018-10-11T10:11:26.595Z,58.4
2018-10-11T10:12:15.994Z,59.6
2018-10-11T10:13:05.327Z,60.1
2018-10-11T10:13:55.952Z,59.6
2018-10-11T10:14:45.715Z,58.2
2018-10-11T10:15:35.671Z,56.4
2018-10-11T10:16:26.132Z,54.8
2018-10-11T10:17:15.939Z,53.9
2018-10-11T10:18:06.509Z,53.5
2018-10-11T10:18:56.342Z,53.5
2018-10-11T10:19:46.379Z,54.4
2018-10-11T10:20:36.456Z,56.1
2018-10-11T10:21:27.650Z,57.4
2018-10-11T10:22:17.059Z,58.4
2018-10-11T10:23:06.645Z,59
2018-10-11T10:23:56.421Z,59.2
2018-10-11T10:24:47.253Z,59.6
2018-10-11T10:25:36.920Z,60.1
2018-10-11T10:26:27.531Z,60.8
2018-10-11T10:27:18.151Z,61.6
2018-10-11T10:28:07.008Z,62.5
2018-10-11T10:28:57.280Z,63
2018-10-11T10:29:47.388Z,63.6
2018-10-11T10:30:37.193Z,64
2018-10-11T10:31:26.790Z,64.4
2018-10-11T10:32:17.065Z,64.6
2018-10-11T10:33:07.398Z,64.7
2018-10-11T10:33:57.396Z,64.6
2018-10-11T10:34:48.273Z,64.1
2018-10-11T10:35:37.583Z,64.3
2018-10-11T10:36:27.626Z,64.8
2018-10-11T10:37:17.740Z,65.3
2018-10-11T10:38:07.743Z,65.8
2018-10-11T10:38:58.068Z,66.1
2018-10-11T10:39:48.152Z,66.3
2018-10-11T10:40:37.391Z,66.4
2018-10-11T10:41:28.005Z,66
2018-10-11T10:42:17.799Z,65.8
2018-10-11T10:43:07.655Z,66.3
2018-10-11T10:43:57.620Z,66.4
2018-10-11T10:44:48.284Z,66.3
2018-10-11T10:45:38.308Z,66.6
2018-10-11T10:46:28.370Z,66.9
2018-10-11T10:47:18.172Z,67
2018-10-11T10:48:08.497Z,67.1
2018-10-11T10:48:59.025Z,67.3
2018-10-11T10:49:48.627Z,67.3
2018-10-11T10:50:38.735Z,66.2
2018-10-11T10:51:28.742Z,64.5
2018-10-11T10:52:18.550Z,63.1
2018-10-11T10:53:08.318Z,62
2018-10-11T10:53:58.500Z,61.4
2018-10-11T10:54:48.999Z,61.9
2018-10-11T10:55:38.807Z,63.3
2018-10-11T10:56:29.364Z,64.6
2018-10-11T10:57:19.181Z,65.4
2018-10-11T10:58:09.255Z,65.8
2018-10-11T10:58:59.310Z,65.7
2018-10-11T10:59:49.364Z,65.6
2018-10-11T11:00:39.454Z,65.7
2018-10-11T11:01:29.212Z,65.9
2018-10-11T11:02:19.569Z,66.4
2018-10-11T11:03:09.878Z,66.8
2018-10-11T11:03:59.688Z,67.2
2018-10-11T11:04:49.951Z,67.3
2018-10-11T11:05:40.269Z,66.9
2018-10-11T11:06:29.586Z,66.6
2018-10-11T11:07:20.123Z,66.3
2018-10-11T11:08:09.991Z,66.3
2018-10-11T11:09:00.051Z,66.6
2018-10-11T11:09:50.122Z,66.9
2018-10-11T11:10:40.679Z,67.4
2018-10-11T11:11:29.976Z,67.8
2018-10-11T11:12:20.022Z,67.6
2018-10-11T11:13:10.475Z,66.9
2018-10-11T11:14:00.639Z,66.4
2018-10-11T11:14:50.221Z,66.3
2018-10-11T11:15:40.574Z,66.6
2018-10-11T11:16:30.621Z,66.9
2018-10-11T11:17:20.386Z,67.1
2018-10-11T11:18:10.746Z,67.3
2018-10-11T11:19:01.759Z,67.2
2018-10-11T11:19:50.573Z,66.9
2018-10-11T11:20:41.192Z,66.7
2018-10-11T11:21:30.994Z,66.5
2018-10-11T11:22:21.048Z,66.4
2018-10-11T11:23:11.106Z,65.5
2018-10-11T11:24:01.176Z,64.1
2018-10-11T11:24:51.247Z,62.6
2018-10-11T11:25:41.438Z,61.4
2018-10-11T11:26:30.885Z,60.4
2018-10-11T11:27:20.859Z,60.2
2018-10-11T11:28:11.213Z,61.1
2018-10-11T11:29:01.540Z,62.3
2018-10-11T11:29:51.620Z,63
2018-10-11T11:30:41.265Z,63.4
2018-10-11T11:31:30.967Z,63.6
2018-10-11T11:32:21.049Z,63.5
2018-10-11T11:33:11.578Z,63.3
2018-10-11T11:34:01.366Z,63.4
2018-10-11T11:34:51.982Z,63.8
2018-10-11T11:35:42.208Z,64.1
2018-10-11T11:36:32.071Z,64.4
2018-10-11T11:37:21.880Z,64.4
2018-10-11T11:38:12.251Z,64.1
2018-10-11T11:39:02.307Z,63.9
2018-10-11T11:39:51.562Z,63.7
2018-10-11T11:40:42.613Z,63.8
2018-10-11T11:41:32.505Z,63.9
2018-10-11T11:42:22.257Z,64.3
2018-10-11T11:43:12.349Z,64.5
2018-10-11T11:44:02.385Z,64.6
2018-10-11T11:44:52.727Z,64.5
2018-10-11T11:45:42.931Z,64.5
2018-10-11T11:46:32.291Z,64.4
2018-10-11T11:47:22.902Z,64.4
2018-10-11T11:48:12.704Z,64.3
2018-10-11T11:49:02.792Z,64.3
2018-10-11T11:49:52.837Z,64.3
2018-10-11T11:50:43.560Z,64.3
2018-10-11T11:51:32.957Z,64.3
2018-10-11T11:52:23.038Z,64.4
2018-10-11T11:53:13.775Z,64.4
2018-10-11T11:54:03.166Z,64.5
2018-10-11T11:54:53.189Z,64.5
2018-10-11T11:55:43.557Z,64.4
2018-10-11T11:56:33.030Z,64.4
2018-10-11T11:57:23.386Z,64.4
2018-10-11T11:58:13.724Z,64.4
2018-10-11T11:59:03.528Z,64.5
2018-10-11T11:59:53.587Z,64.4
2018-10-11T12:00:43.933Z,64.2
2018-10-11T12:01:33.969Z,64.2
2018-10-11T12:02:23.771Z,64.1
2018-10-11T12:03:14.359Z,63.9
2018-10-11T12:04:04.189Z,63.9
2018-10-11T12:04:53.670Z,63.9
2018-10-11T12:05:44.581Z,64.1
2018-10-11T12:06:34.373Z,64.2
2018-10-11T12:07:24.398Z,64.3
2018-10-11T12:08:14.476Z,64.3
2018-10-11T12:09:04.519Z,64.2
2018-10-11T12:09:54.326Z,64.3
2018-10-11T12:10:45.163Z,64.3
2018-10-11T12:11:34.160Z,64.3
2018-10-11T12:12:24.796Z,63.9